Terminal Aerodrome Forecast
Issued by NWS Omaha/Valley, NE

Home | Current Version | Previous Version | Graphics & Text | Print | Product List | Glossary On
Versions: 1 2 3 4 5 6 7 8 9 10 11 12 13 14
170
FTUS43 KOAX 211720
TAFOFK
TAF
KOFK 211720Z 2118/2218 28009KT P6SM SKC
     FM220000 24004KT P6SM SCT150
     FM221500 17008KT P6SM BKN120=

USA.gov is the U.S. government's official web portal to all federal, state and local government web resources and services.